createdAt,value
2019-02-19T00:02:26.361Z,5.47
2019-02-19T00:04:55.089Z,5.03
2019-02-19T00:07:23.848Z,4.92
2019-02-19T00:09:52.677Z,4.78
2019-02-19T00:12:23.344Z,5.12
2019-02-19T00:14:51.893Z,4.92
2019-02-19T00:17:20.649Z,5.23
2019-02-19T00:19:49.382Z,4.92
2019-02-19T00:22:18.189Z,4.40
2019-02-19T00:24:46.985Z,4.70
2019-02-19T00:27:15.745Z,5.12
2019-02-19T00:29:44.558Z,4.83
2019-02-19T00:32:13.317Z,5.00
2019-02-19T00:34:42.046Z,4.70
2019-02-19T00:37:10.801Z,4.92
2019-02-19T00:39:39.574Z,4.95
2019-02-19T00:42:08.327Z,5.08
2019-02-19T00:44:37.145Z,4.78
2019-02-19T00:47:05.912Z,5.03
2019-02-19T00:49:34.712Z,5.10
2019-02-19T00:52:03.464Z,4.85
2019-02-19T00:54:32.238Z,5.20
2019-02-19T00:57:00.981Z,5.43
2019-02-19T00:59:29.740Z,5.10
2019-02-19T01:01:58.516Z,5.83
2019-02-19T01:04:27.294Z,5.03
2019-02-19T01:06:56.132Z,5.50
2019-02-19T01:09:25.057Z,5.25
2019-02-19T01:11:53.792Z,5.37
2019-02-19T01:14:22.553Z,5.58
2019-02-19T01:16:51.389Z,5.50
2019-02-19T01:19:20.158Z,5.25
2019-02-19T01:21:48.933Z,5.30
2019-02-19T01:24:17.660Z,5.40
2019-02-19T01:26:46.435Z,5.62
2019-02-19T01:29:15.297Z,5.80
2019-02-19T01:31:44.034Z,5.17
2019-02-19T01:34:12.796Z,5.33
2019-02-19T01:36:41.561Z,5.40
2019-02-19T01:39:10.379Z,5.58
2019-02-19T01:41:39.132Z,5.90
2019-02-19T01:44:07.880Z,5.58
2019-02-19T01:46:36.656Z,6.10
2019-02-19T01:49:05.382Z,5.30
2019-02-19T01:51:34.224Z,5.78
2019-02-19T01:54:03.020Z,5.80
2019-02-19T01:56:31.777Z,6.25
2019-02-19T01:59:00.508Z,6.62
2019-02-19T02:01:29.273Z,5.95
2019-02-19T02:03:58.110Z,6.10
2019-02-19T02:06:26.873Z,5.70
2019-02-19T02:08:55.601Z,6.10
2019-02-19T02:11:24.361Z,5.78
2019-02-19T02:13:53.089Z,6.55
2019-02-19T02:16:21.859Z,6.28
2019-02-19T02:18:50.591Z,6.75
2019-02-19T02:21:19.500Z,6.73
2019-02-19T02:23:48.230Z,6.67
2019-02-19T02:26:17.007Z,7.00
2019-02-19T02:28:45.761Z,6.95
2019-02-19T02:31:14.615Z,7.40
2019-02-19T02:33:43.365Z,7.30
2019-02-19T02:36:12.098Z,7.28
2019-02-19T02:38:40.930Z,7.65
2019-02-19T02:41:09.730Z,7.55
2019-02-19T02:43:38.584Z,7.75
2019-02-19T02:46:07.339Z,7.92
2019-02-19T02:48:36.170Z,7.85
2019-02-19T02:51:04.905Z,7.78
2019-02-19T02:53:33.677Z,7.63
2019-02-19T02:56:02.428Z,7.72
2019-02-19T02:58:31.469Z,7.87
2019-02-19T03:01:00.201Z,8.25
2019-02-19T03:03:28.994Z,7.23
2019-02-19T03:06:11.895Z,8.13
2019-02-19T03:08:40.702Z,8.15
2019-02-19T03:11:09.426Z,7.80
2019-02-19T03:13:38.190Z,8.27
2019-02-19T03:16:06.990Z,7.92
2019-02-19T03:18:35.781Z,7.58
2019-02-19T03:21:04.594Z,7.85
2019-02-19T03:23:33.393Z,8.58
2019-02-19T03:26:02.149Z,8.10
2019-02-19T03:28:30.961Z,8.20
2019-02-19T03:30:59.821Z,9.05
2019-02-19T03:33:28.542Z,8.15
2019-02-19T03:35:57.303Z,8.53
2019-02-19T03:38:26.118Z,8.60
2019-02-19T03:40:54.881Z,9.17
2019-02-19T03:43:25.254Z,8.65
2019-02-19T03:45:54.013Z,8.95
2019-02-19T03:48:22.742Z,8.73
2019-02-19T03:50:51.505Z,8.85
2019-02-19T03:53:20.237Z,9.15
2019-02-19T03:55:49.107Z,8.83
2019-02-19T03:58:17.884Z,8.95
2019-02-19T04:00:46.618Z,9.10
2019-02-19T04:03:15.485Z,9.25
2019-02-19T04:05:44.209Z,8.60
2019-02-19T04:08:12.975Z,8.90
2019-02-19T04:10:41.725Z,9.03
2019-02-19T04:13:10.514Z,9.30
2019-02-19T04:15:39.320Z,9.55
2019-02-19T04:18:08.079Z,9.45
2019-02-19T04:20:36.803Z,8.65
2019-02-19T04:23:05.564Z,8.53
2019-02-19T04:25:34.317Z,8.75
2019-02-19T04:28:04.725Z,9.13
2019-02-19T04:30:33.456Z,8.65
2019-02-19T04:33:02.189Z,8.70
2019-02-19T04:35:30.957Z,8.78
2019-02-19T04:37:59.763Z,8.23
2019-02-19T04:40:28.619Z,8.83
2019-02-19T04:42:57.353Z,8.70
2019-02-19T04:45:26.193Z,8.88
2019-02-19T04:47:54.921Z,9.13
2019-02-19T04:50:23.681Z,8.63
2019-02-19T04:52:52.479Z,8.18
2019-02-19T04:55:21.321Z,8.65
2019-02-19T04:57:50.054Z,8.23
2019-02-19T05:00:18.817Z,8.60
2019-02-19T05:02:47.549Z,8.05
2019-02-19T05:05:16.305Z,8.60
2019-02-19T05:07:45.141Z,8.70
2019-02-19T05:10:13.901Z,8.53
2019-02-19T05:12:42.691Z,8.13
2019-02-19T05:15:11.916Z,8.50
2019-02-19T05:17:42.566Z,8.90
2019-02-19T05:20:11.154Z,8.43
2019-02-19T05:22:39.993Z,8.28
2019-02-19T05:25:08.747Z,8.38
2019-02-19T05:27:37.543Z,8.53
2019-02-19T05:30:09.575Z,8.58
2019-02-19T05:32:38.340Z,8.40
2019-02-19T05:35:08.071Z,8.48
2019-02-19T05:37:36.830Z,8.23
2019-02-19T05:40:07.774Z,8.23
2019-02-19T05:42:36.601Z,8.70
2019-02-19T05:45:08.126Z,8.78
2019-02-19T05:47:36.946Z,8.78
2019-02-19T05:50:07.774Z,8.98
2019-02-19T05:52:36.540Z,8.18
2019-02-19T05:55:07.317Z,8.85
2019-02-19T05:57:36.053Z,8.80
2019-02-19T06:00:07.565Z,8.30
2019-02-19T06:02:36.364Z,9.38
2019-02-19T06:05:07.406Z,8.90
2019-02-19T06:07:39.376Z,9.20
2019-02-19T06:10:10.928Z,8.83
2019-02-19T06:12:39.842Z,8.28
2019-02-19T06:15:11.433Z,8.30
2019-02-19T06:17:40.170Z,9.55
2019-02-19T06:20:09.529Z,8.80
2019-02-19T06:22:38.254Z,8.90
2019-02-19T06:25:09.115Z,9.78
2019-02-19T06:27:38.030Z,9.55
2019-02-19T06:30:12.634Z,9.50
2019-02-19T06:32:41.404Z,9.25
2019-02-19T06:35:10.374Z,9.20
2019-02-19T06:37:39.184Z,9.53
2019-02-19T06:40:10.898Z,9.58
2019-02-19T06:42:39.666Z,9.30
2019-02-19T06:45:08.613Z,9.30
2019-02-19T06:47:37.476Z,9.70
2019-02-19T06:50:06.493Z,10.05
2019-02-19T06:52:35.253Z,8.90
2019-02-19T06:55:04.077Z,9.25
2019-02-19T06:57:32.845Z,9.70
2019-02-19T07:00:01.645Z,10.20
2019-02-19T07:02:38.069Z,9.75
2019-02-19T07:05:08.572Z,10.68
2019-02-19T07:07:37.373Z,10.30
2019-02-19T07:10:07.009Z,9.78
2019-02-19T07:12:35.849Z,10.63
2019-02-19T07:15:06.567Z,10.98
2019-02-19T07:17:35.394Z,10.72
2019-02-19T07:20:05.829Z,10.23
2019-02-19T07:22:34.610Z,10.55
2019-02-19T07:25:03.544Z,10.95
2019-02-19T07:27:32.285Z,10.55
2019-02-19T07:30:01.078Z,10.68
2019-02-19T07:32:29.889Z,10.48
2019-02-19T07:34:58.661Z,10.38
2019-02-19T07:37:27.397Z,10.07
2019-02-19T07:39:56.225Z,10.88
2019-02-19T07:42:24.957Z,10.60
2019-02-19T07:44:53.725Z,10.58
2019-02-19T07:47:24.664Z,10.50
2019-02-19T07:49:52.960Z,10.25
2019-02-19T07:52:21.773Z,10.45
2019-02-19T07:54:50.604Z,10.28
2019-02-19T07:57:19.445Z,10.73
2019-02-19T07:59:48.205Z,10.60
2019-02-19T08:02:16.941Z,11.03
2019-02-19T08:04:45.721Z,10.13
2019-02-19T08:07:14.497Z,10.30
2019-02-19T08:09:43.225Z,10.20
2019-02-19T08:12:12.054Z,9.73
2019-02-19T08:14:40.733Z,9.28
2019-02-19T08:17:09.490Z,9.88
2019-02-19T08:19:38.330Z,9.23
2019-02-19T08:22:07.088Z,8.65
2019-02-19T08:24:35.906Z,8.25
2019-02-19T08:27:04.669Z,8.18
2019-02-19T08:29:33.477Z,9.13
2019-02-19T08:32:02.301Z,8.37
2019-02-19T08:34:31.094Z,8.45
2019-02-19T08:36:59.991Z,7.80
2019-02-19T08:39:30.438Z,8.00
2019-02-19T08:41:59.193Z,7.75
2019-02-19T08:44:27.996Z,7.42
2019-02-19T08:46:56.842Z,7.90
2019-02-19T08:49:25.605Z,7.37
2019-02-19T08:51:56.282Z,7.20
2019-02-19T08:54:24.763Z,7.40
2019-02-19T08:56:53.475Z,6.90
2019-02-19T08:59:22.238Z,6.45
2019-02-19T09:01:50.970Z,6.83
2019-02-19T09:04:19.735Z,7.03
2019-02-19T09:06:48.472Z,6.50
2019-02-19T09:09:17.297Z,6.28
2019-02-19T09:11:46.098Z,6.28
2019-02-19T09:14:14.926Z,6.05
2019-02-19T09:16:43.662Z,5.60
2019-02-19T09:19:12.417Z,5.72
2019-02-19T09:21:41.236Z,5.47
2019-02-19T09:24:10.003Z,5.50
2019-02-19T09:26:38.810Z,5.33
2019-02-19T09:29:07.549Z,5.70
2019-02-19T09:31:36.317Z,5.30
2019-02-19T09:34:05.049Z,5.10
2019-02-19T09:36:33.813Z,5.20
2019-02-19T09:39:02.722Z,5.28
2019-02-19T09:41:31.493Z,5.37
2019-02-19T09:44:00.221Z,5.05
2019-02-19T09:46:29.049Z,5.12
2019-02-19T09:48:57.797Z,5.30
2019-02-19T09:51:26.553Z,5.33
2019-02-19T09:53:55.286Z,4.90
2019-02-19T09:56:24.162Z,5.37
2019-02-19T09:58:52.890Z,5.30
2019-02-19T10:01:21.653Z,5.47
2019-02-19T10:03:50.379Z,5.08
2019-02-19T10:06:19.209Z,4.95
2019-02-19T10:08:47.990Z,5.22
2019-02-19T10:11:16.721Z,5.35
2019-02-19T10:13:45.489Z,4.97
2019-02-19T10:16:14.327Z,5.20
2019-02-19T10:18:43.085Z,5.07
2019-02-19T10:21:11.814Z,4.85
2019-02-19T10:23:40.626Z,4.90
2019-02-19T10:26:09.530Z,5.15
2019-02-19T10:28:38.289Z,4.87
2019-02-19T10:31:07.015Z,5.27
2019-02-19T10:33:35.853Z,5.12
2019-02-19T10:36:04.634Z,4.90
2019-02-19T10:38:33.417Z,4.72
2019-02-19T10:41:02.237Z,4.72
2019-02-19T10:43:30.985Z,5.03
2019-02-19T10:45:59.741Z,4.97
2019-02-19T10:48:28.590Z,4.60
2019-02-19T10:50:57.401Z,5.08
2019-02-19T10:53:26.206Z,4.50
2019-02-19T10:55:54.977Z,4.40
2019-02-19T10:58:23.713Z,4.67
2019-02-19T11:00:52.553Z,4.70
2019-02-19T11:03:21.285Z,4.45
2019-02-19T11:05:50.045Z,4.78
2019-02-19T11:08:18.869Z,4.30
2019-02-19T11:10:47.637Z,3.92
2019-02-19T11:13:16.404Z,4.15
2019-02-19T11:15:45.231Z,4.20
2019-02-19T11:18:14.001Z,4.30
2019-02-19T11:20:42.733Z,4.00
2019-02-19T11:23:11.497Z,3.60
2019-02-19T11:25:40.286Z,3.72
2019-02-19T11:28:09.135Z,4.08
2019-02-19T11:30:37.910Z,3.75
2019-02-19T11:33:06.682Z,4.00
2019-02-19T11:35:35.443Z,4.40
2019-02-19T11:38:04.267Z,3.80
2019-02-19T11:40:33.113Z,4.53
2019-02-19T11:43:01.879Z,4.40
2019-02-19T11:45:30.689Z,3.98
2019-02-19T11:47:59.456Z,4.25
2019-02-19T11:50:28.301Z,4.00
2019-02-19T11:52:57.037Z,3.90
2019-02-19T11:55:25.869Z,4.33
2019-02-19T11:57:54.609Z,4.17
2019-02-19T12:00:40.143Z,4.17
2019-02-19T12:03:08.881Z,4.43
2019-02-19T12:05:37.660Z,4.08
2019-02-19T12:08:06.406Z,4.12
2019-02-19T12:10:35.169Z,4.20
2019-02-19T12:13:03.901Z,4.08
2019-02-19T12:15:35.275Z,4.47
2019-02-19T12:18:04.652Z,4.30
2019-02-19T12:20:33.429Z,3.77
2019-02-19T12:23:02.165Z,4.17
2019-02-19T12:25:31.778Z,3.80
2019-02-19T12:28:00.531Z,4.00
2019-02-19T12:30:29.304Z,3.83
2019-02-19T12:32:58.174Z,4.10
2019-02-19T12:35:26.905Z,4.60
2019-02-19T12:37:55.673Z,4.35
2019-02-19T12:40:24.414Z,3.92
2019-02-19T12:42:53.182Z,4.47
2019-02-19T12:45:21.910Z,4.28
2019-02-19T12:47:50.741Z,4.03
2019-02-19T12:50:19.682Z,3.93
2019-02-19T12:52:48.473Z,3.92
2019-02-19T12:55:17.213Z,4.03
2019-02-19T12:57:46.052Z,3.42
2019-02-19T13:00:17.098Z,4.12
2019-02-19T13:02:45.882Z,4.10
2019-02-19T13:05:15.868Z,3.77
2019-02-19T13:07:44.785Z,3.92
2019-02-19T13:10:13.722Z,3.35
2019-02-19T13:12:42.494Z,3.60
2019-02-19T13:15:14.277Z,3.60
2019-02-19T13:17:43.020Z,3.50
2019-02-19T13:20:14.057Z,3.72
2019-02-19T13:22:42.787Z,3.33
2019-02-19T13:25:12.146Z,3.40
2019-02-19T13:27:40.895Z,3.08
2019-02-19T13:30:17.609Z,2.95
2019-02-19T13:32:46.341Z,2.83
2019-02-19T13:35:15.308Z,2.52
2019-02-19T13:37:44.120Z,2.95
2019-02-19T13:40:15.559Z,2.58
2019-02-19T13:42:44.298Z,2.60
2019-02-19T13:45:15.178Z,2.80
2019-02-19T13:47:43.905Z,3.08
2019-02-19T13:50:21.143Z,3.17
2019-02-19T13:53:06.824Z,3.07
2019-02-19T13:55:37.233Z,3.35
2019-02-19T13:58:05.965Z,3.00
2019-02-19T14:00:42.681Z,3.13
2019-02-19T14:03:11.470Z,3.13
2019-02-19T14:05:40.264Z,3.35
2019-02-19T14:08:14.668Z,3.35
2019-02-19T14:10:39.386Z,3.30
2019-02-19T14:13:08.153Z,3.45
2019-02-19T14:15:38.522Z,3.42
2019-02-19T14:18:08.925Z,3.45
2019-02-19T14:20:57.349Z,3.27
2019-02-19T14:23:44.295Z,3.30
2019-02-19T14:26:29.976Z,3.85
2019-02-19T14:29:08.107Z,3.60
2019-02-19T14:31:41.138Z,3.57
2019-02-19T14:34:14.345Z,3.35
2019-02-19T14:36:44.708Z,4.05
2019-02-19T14:39:33.289Z,3.87
2019-02-19T14:42:03.669Z,3.50
2019-02-19T14:44:34.073Z,3.72
2019-02-19T14:47:04.444Z,3.60
2019-02-19T14:49:51.390Z,3.67
2019-02-19T14:52:36.847Z,3.65
2019-02-19T14:55:07.755Z,3.50
2019-02-19T14:57:47.045Z,4.17
2019-02-19T15:00:17.481Z,3.75
2019-02-19T15:03:04.395Z,3.50
2019-02-19T15:05:37.469Z,4.28
2019-02-19T15:08:10.637Z,4.22
2019-02-19T15:10:43.789Z,4.28
2019-02-19T15:13:29.397Z,3.80
2019-02-19T15:16:11.888Z,3.92
2019-02-19T15:18:45.233Z,4.10
2019-02-19T15:21:15.641Z,4.17
2019-02-19T15:23:54.938Z,4.00
2019-02-19T15:26:25.349Z,4.05
2019-02-19T15:28:55.725Z,3.90
2019-02-19T15:31:42.381Z,3.80
2019-02-19T15:34:31.044Z,4.00
2019-02-19T15:37:19.341Z,3.70
2019-02-19T15:39:50.113Z,3.90
2019-02-19T15:42:20.517Z,4.17
2019-02-19T15:45:07.129Z,4.00
2019-02-19T15:47:52.854Z,3.95
2019-02-19T15:50:39.611Z,3.87
2019-02-19T15:53:21.912Z,3.80
2019-02-19T15:56:04.371Z,3.83
2019-02-19T15:58:51.188Z,4.20
2019-02-19T16:01:24.408Z,3.65
2019-02-19T16:04:04.129Z,3.83
2019-02-19T16:06:49.759Z,3.80
2019-02-19T16:09:26.426Z,3.92
2019-02-19T16:11:56.806Z,4.20
2019-02-19T16:14:32.909Z,4.62
2019-02-19T16:17:03.290Z,3.65
2019-02-19T16:19:36.492Z,4.17
2019-02-19T16:22:25.333Z,4.30
2019-02-19T16:24:55.751Z,4.05
2019-02-19T16:27:31.661Z,4.28
2019-02-19T16:30:02.067Z,3.80
2019-02-19T16:32:41.244Z,4.00
2019-02-19T16:35:26.762Z,3.98
2019-02-19T16:38:02.930Z,3.87
2019-02-19T16:40:33.402Z,4.45
2019-02-19T16:43:12.805Z,3.65
2019-02-19T16:45:43.213Z,4.20
2019-02-19T16:48:29.786Z,4.65
2019-02-19T16:51:16.481Z,3.80
2019-02-19T16:53:49.610Z,4.33
2019-02-19T16:56:20.027Z,3.70
2019-02-19T16:58:53.545Z,3.87
2019-02-19T17:01:33.192Z,4.10
2019-02-19T17:04:18.821Z,3.92
2019-02-19T17:06:51.901Z,4.05
2019-02-19T17:09:31.070Z,4.00
2019-02-19T17:12:10.725Z,4.17
2019-02-19T17:14:44.087Z,3.87
2019-02-19T17:17:14.486Z,4.42
2019-02-19T17:20:01.150Z,4.70
2019-02-19T17:22:31.557Z,4.15
2019-02-19T17:25:07.986Z,4.42
2019-02-19T17:27:44.429Z,4.50
2019-02-19T17:30:23.668Z,4.42
2019-02-19T17:32:54.073Z,4.40
2019-02-19T17:35:27.477Z,4.78
2019-02-19T17:38:14.216Z,4.22
2019-02-19T17:40:51.277Z,4.47
2019-02-19T17:43:21.807Z,5.10
2019-02-19T17:45:54.617Z,4.73
2019-02-19T17:48:30.987Z,5.03
2019-02-19T17:51:01.359Z,5.17
2019-02-19T17:53:31.774Z,5.30
2019-02-19T17:56:08.184Z,5.20
2019-02-19T17:58:54.000Z,5.28
2019-02-19T18:01:30.089Z,5.45
2019-02-19T18:04:12.584Z,5.42
2019-02-19T18:06:58.073Z,5.60
2019-02-19T18:09:31.182Z,5.72
2019-02-19T18:12:10.746Z,5.90
2019-02-19T18:14:47.162Z,6.00
2019-02-19T18:17:17.544Z,6.30
2019-02-19T18:19:46.297Z,5.85
2019-02-19T18:22:15.030Z,6.43
2019-02-19T18:24:43.802Z,6.50
2019-02-19T18:27:12.653Z,7.53
2019-02-19T18:29:41.497Z,7.15
2019-02-19T18:32:10.229Z,7.85
2019-02-19T18:34:38.989Z,8.25
2019-02-19T18:37:07.730Z,7.58
2019-02-19T18:39:36.584Z,8.20
2019-02-19T18:42:05.476Z,8.50
2019-02-19T18:44:34.173Z,9.20
2019-02-19T18:47:02.955Z,8.55
2019-02-19T18:49:33.205Z,8.93
2019-02-19T18:52:02.038Z,9.40
2019-02-19T18:54:30.782Z,8.63
2019-02-19T18:56:59.906Z,9.00
2019-02-19T18:59:28.636Z,9.27
2019-02-19T19:01:57.406Z,9.30
2019-02-19T19:04:26.215Z,9.58
2019-02-19T19:06:54.974Z,9.98
2019-02-19T19:09:23.722Z,8.93
2019-02-19T19:11:52.773Z,9.43
2019-02-19T19:14:21.589Z,9.10
2019-02-19T19:16:57.566Z,10.10
2019-02-19T19:19:26.419Z,10.30
2019-02-19T19:22:15.851Z,10.23
2019-02-19T19:24:46.210Z,11.68
2019-02-19T19:27:17.720Z,9.87
2019-02-19T19:29:47.117Z,9.37
2019-02-19T19:32:15.885Z,9.25
2019-02-19T19:34:44.630Z,10.50
2019-02-19T19:37:14.077Z,9.35
2019-02-19T19:39:44.385Z,10.53
2019-02-19T19:42:13.491Z,10.25
2019-02-19T19:44:44.092Z,9.60
2019-02-19T19:47:12.839Z,11.03
2019-02-19T19:49:41.685Z,12.33
2019-02-19T19:52:10.513Z,13.55
2019-02-19T19:54:41.335Z,12.55
2019-02-19T19:57:10.169Z,13.40
2019-02-19T19:59:41.860Z,14.35
2019-02-19T20:02:11.667Z,15.00
2019-02-19T20:04:40.733Z,14.67
2019-02-19T20:07:09.610Z,14.07
2019-02-19T20:09:40.261Z,13.62
2019-02-19T20:12:12.233Z,13.95
2019-02-19T20:14:43.223Z,13.58
2019-02-19T20:17:11.997Z,14.13
2019-02-19T20:19:42.566Z,13.77
2019-02-19T20:22:13.209Z,13.13
2019-02-19T20:24:42.403Z,13.68
2019-02-19T20:27:12.838Z,13.28
2019-02-19T20:29:41.649Z,13.35
2019-02-19T20:32:13.478Z,13.43
2019-02-19T20:34:45.260Z,14.15
2019-02-19T20:37:14.611Z,13.80
2019-02-19T20:39:48.953Z,13.80
2019-02-19T20:42:19.278Z,13.80
2019-02-19T20:44:53.658Z,15.15
2019-02-19T20:47:22.626Z,14.23
2019-02-19T20:49:53.510Z,14.43
2019-02-19T20:52:22.382Z,14.40
2019-02-19T20:54:51.117Z,14.38
2019-02-19T20:57:19.891Z,13.90
2019-02-19T20:59:48.732Z,14.95
2019-02-19T21:02:17.640Z,15.35
2019-02-19T21:04:47.251Z,14.83
2019-02-19T21:07:16.093Z,14.15
2019-02-19T21:09:44.858Z,14.10
2019-02-19T21:12:13.601Z,15.58
2019-02-19T21:14:42.390Z,15.15
2019-02-19T21:17:11.125Z,14.20
2019-02-19T21:19:40.355Z,13.93
2019-02-19T21:22:09.682Z,13.93
2019-02-19T21:24:38.492Z,15.32
2019-02-19T21:27:13.347Z,14.53
2019-02-19T21:29:37.991Z,14.00
2019-02-19T21:32:08.229Z,14.80
2019-02-19T21:34:36.958Z,15.60
2019-02-19T21:37:05.705Z,15.10
2019-02-19T21:39:34.505Z,15.48
2019-02-19T21:42:03.253Z,14.75
2019-02-19T21:44:31.984Z,15.15
2019-02-19T21:47:02.591Z,15.40
2019-02-19T21:49:31.321Z,15.35
2019-02-19T21:52:00.087Z,15.78
2019-02-19T21:54:28.936Z,15.28
2019-02-19T21:56:57.826Z,15.48
2019-02-19T21:59:26.581Z,15.05
2019-02-19T22:01:55.418Z,14.83
2019-02-19T22:04:24.160Z,15.45
2019-02-19T22:07:00.430Z,15.20
2019-02-19T22:09:28.974Z,15.72
2019-02-19T22:11:57.810Z,16.40
2019-02-19T22:14:26.561Z,16.30
2019-02-19T22:16:55.308Z,15.60
2019-02-19T22:19:24.118Z,15.72
2019-02-19T22:22:03.008Z,15.80
2019-02-19T22:24:37.054Z,15.05
2019-02-19T22:27:06.426Z,16.05
2019-02-19T22:29:35.193Z,15.83
2019-02-19T22:32:04.701Z,16.17
2019-02-19T22:34:33.468Z,15.18
2019-02-19T22:37:02.203Z,16.40
2019-02-19T22:39:30.972Z,16.07
2019-02-19T22:42:00.848Z,16.27
2019-02-19T22:44:29.677Z,15.68
2019-02-19T22:46:58.426Z,16.80
2019-02-19T22:49:27.191Z,17.17
2019-02-19T22:51:55.926Z,16.48
2019-02-19T22:54:26.340Z,16.95
2019-02-19T22:56:55.074Z,16.77
2019-02-19T22:59:23.937Z,17.48
2019-02-19T23:01:54.451Z,16.32
2019-02-19T23:04:23.261Z,17.75
2019-02-19T23:06:52.002Z,16.75
2019-02-19T23:09:20.769Z,15.15
2019-02-19T23:11:49.581Z,15.72
2019-02-19T23:14:18.413Z,16.62
2019-02-19T23:16:47.177Z,16.05
2019-02-19T23:19:16.665Z,15.80
2019-02-19T23:21:45.434Z,16.00
2019-02-19T23:24:18.705Z,17.70
2019-02-19T23:26:47.519Z,18.30
2019-02-19T23:29:16.331Z,17.50
2019-02-19T23:31:45.090Z,17.57
2019-02-19T23:34:13.829Z,17.23
2019-02-19T23:36:44.234Z,17.87
2019-02-19T23:39:12.976Z,17.82
2019-02-19T23:41:41.742Z,17.12
2019-02-19T23:44:10.486Z,17.12
2019-02-19T23:46:39.404Z,16.50
2019-02-19T23:49:08.132Z,15.05
2019-02-19T23:51:36.983Z,16.32
2019-02-19T23:54:05.784Z,16.93
2019-02-19T23:56:34.522Z,17.73
2019-02-19T23:59:03.289Z,18.00
